createdAt,value
2023-02-07T00:04:18.871Z,-0.20
2023-02-07T00:09:23.654Z,-0.20
2023-02-07T00:14:27.059Z,-0.20
2023-02-07T00:19:30.411Z,-0.30
2023-02-07T00:24:35.184Z,-0.30
2023-02-07T00:29:38.803Z,-0.30
2023-02-07T00:34:42.298Z,-0.30
2023-02-07T00:39:47.042Z,-0.30
2023-02-07T00:44:50.669Z,-0.30
2023-02-07T00:49:54.046Z,-0.40
2023-02-07T00:54:58.789Z,-0.40
2023-02-07T01:00:02.278Z,-0.40
2023-02-07T01:05:06.869Z,-0.40
2023-02-07T01:10:11.917Z,-0.40
2023-02-07T01:15:15.606Z,-0.50
2023-02-07T01:20:19.129Z,-0.60
2023-02-07T01:25:24.174Z,-0.60
2023-02-07T01:30:28.366Z,-0.70
2023-02-07T01:35:31.783Z,-0.70
2023-02-07T01:40:38.005Z,-0.70
2023-02-07T01:45:41.665Z,-0.70
2023-02-07T01:50:48.150Z,-0.70
2023-02-07T01:55:56.166Z,-0.70
2023-02-07T02:01:01.655Z,-0.70
2023-02-07T02:06:05.910Z,-0.80
2023-02-07T02:11:25.164Z,-0.80
2023-02-07T02:16:33.957Z,-0.80
2023-02-07T02:22:04.091Z,-0.90
2023-02-07T02:27:17.538Z,-0.90
2023-02-07T02:32:59.845Z,-0.90
2023-02-07T02:38:13.913Z,-0.90
2023-02-07T02:43:26.974Z,-0.90
2023-02-07T02:48:33.128Z,-0.90
2023-02-07T02:53:36.756Z,-0.90
2023-02-07T02:59:04.322Z,-1.00
2023-02-07T03:04:26.560Z,-1.00
2023-02-07T03:09:38.732Z,-1.00
2023-02-07T03:14:51.540Z,-1.00
2023-02-07T03:20:02.868Z,-1.10
2023-02-07T03:25:09.717Z,-1.10
2023-02-07T03:30:16.582Z,-1.20
2023-02-07T03:35:25.504Z,-1.20
2023-02-07T03:40:31.758Z,-1.20
2023-02-07T03:45:35.695Z,-1.20
2023-02-07T03:50:40.832Z,-1.20
2023-02-07T03:55:44.633Z,-1.20
2023-02-07T04:00:48.121Z,-1.30
2023-02-07T04:05:52.881Z,-1.40
2023-02-07T04:11:00.306Z,-1.40
2023-02-07T04:16:05.184Z,-1.50
2023-02-07T04:21:10.475Z,-1.60
2023-02-07T04:26:14.629Z,-1.60
2023-02-07T04:31:18.469Z,-1.60
2023-02-07T04:36:23.806Z,-1.70
2023-02-07T04:41:27.187Z,-1.80
2023-02-07T04:46:30.594Z,-2.00
2023-02-07T04:51:35.477Z,-2.20
2023-02-07T04:56:41.346Z,-2.40
2023-02-07T05:01:44.751Z,-2.40
2023-02-07T05:06:49.515Z,-2.60
2023-02-07T05:11:53.016Z,-2.70
2023-02-07T05:16:56.478Z,-2.80
2023-02-07T05:22:01.432Z,-2.90
2023-02-07T05:27:05.449Z,-2.90
2023-02-07T05:32:26.228Z,-3.00
2023-02-07T05:37:31.273Z,-3.10
2023-02-07T05:42:35.012Z,-3.30
2023-02-07T05:47:38.418Z,-3.20
2023-02-07T05:52:43.812Z,-3.20
2023-02-07T05:57:47.664Z,-3.20
2023-02-07T06:02:51.115Z,-3.10
2023-02-07T06:07:56.052Z,-3.10
2023-02-07T06:12:59.606Z,-3.10
2023-02-07T06:18:03.192Z,-3.00
2023-02-07T06:23:08.128Z,-2.90
2023-02-07T06:28:11.613Z,-2.90
2023-02-07T06:33:15.323Z,-2.80
2023-02-07T06:38:20.506Z,-2.70
2023-02-07T06:43:24.035Z,-2.60
2023-02-07T06:48:27.849Z,-2.60
2023-02-07T06:53:32.868Z,-2.50
2023-02-07T06:58:36.476Z,-2.40
2023-02-07T07:03:40.098Z,-2.40
2023-02-07T07:08:45.310Z,-2.40
2023-02-07T07:13:50.007Z,-2.40
2023-02-07T07:18:54.502Z,-2.30
2023-02-07T07:24:01.235Z,-2.30
2023-02-07T07:29:05.671Z,-2.30
2023-02-07T07:34:09.148Z,-2.30
2023-02-07T07:39:14.695Z,-2.20
2023-02-07T07:44:18.332Z,-2.10
2023-02-07T07:49:21.916Z,-2.00
2023-02-07T07:54:26.796Z,-1.90
2023-02-07T07:59:30.499Z,-1.80
2023-02-07T08:04:33.965Z,-1.70
2023-02-07T08:09:39.193Z,-1.60
2023-02-07T08:14:42.651Z,-1.50
2023-02-07T08:19:46.063Z,-1.40
2023-02-07T08:24:50.934Z,-1.30
2023-02-07T08:29:54.481Z,-1.10
2023-02-07T08:34:57.855Z,-1.10
2023-02-07T08:40:03.524Z,-1.00
2023-02-07T08:45:08.020Z,-0.90
2023-02-07T08:50:12.457Z,-0.80
2023-02-07T08:55:17.919Z,-0.70
2023-02-07T09:00:21.700Z,-0.60
2023-02-07T09:05:26.320Z,-0.40
2023-02-07T09:10:31.522Z,-0.30
2023-02-07T09:15:34.945Z,-0.20
2023-02-07T09:20:40.269Z,-0.10
2023-02-07T09:25:46.132Z,0.10
2023-02-07T09:30:50.942Z,0.20
2023-02-07T09:35:55.075Z,0.30
2023-02-07T09:41:00.354Z,0.40
2023-02-07T09:46:11.468Z,0.50
2023-02-07T09:51:16.867Z,0.60
2023-02-07T09:56:25.378Z,0.70
2023-02-07T10:01:34.857Z,0.80
2023-02-07T10:06:42.168Z,0.90
2023-02-07T10:11:54.309Z,1.00
2023-02-07T10:17:31.478Z,1.10
2023-02-07T10:22:45.572Z,1.30
2023-02-07T10:28:01.330Z,1.40
2023-02-07T10:33:14.244Z,1.50
2023-02-07T10:38:25.073Z,1.70
2023-02-07T10:43:33.219Z,1.80
2023-02-07T10:48:38.411Z,1.90
2023-02-07T10:53:54.553Z,2.10
2023-02-07T10:59:02.177Z,2.20
2023-02-07T11:04:24.240Z,2.30
2023-02-07T11:09:27.692Z,2.40
2023-02-07T11:14:33.760Z,2.50
2023-02-07T11:19:38.013Z,2.70
2023-02-07T11:24:41.752Z,2.70
2023-02-07T11:29:50.360Z,2.70
2023-02-07T11:34:57.682Z,2.70
2023-02-07T11:40:21.085Z,2.80
2023-02-07T11:45:26.867Z,2.90
2023-02-07T11:50:33.777Z,3.10
2023-02-07T11:55:40.584Z,3.20
2023-02-07T12:00:46.265Z,3.30
2023-02-07T12:05:55.879Z,3.50
2023-02-07T12:11:03.118Z,3.60
2023-02-07T12:16:12.690Z,3.80
2023-02-07T12:21:22.880Z,3.90
2023-02-07T12:26:30.531Z,4.00
2023-02-07T12:31:42.624Z,4.00
2023-02-07T12:36:52.658Z,4.00
2023-02-07T12:42:04.517Z,4.00
2023-02-07T12:47:19.886Z,4.00
2023-02-07T12:52:38.249Z,4.00
2023-02-07T12:57:48.827Z,4.00
2023-02-07T13:03:11.606Z,4.00
2023-02-07T13:08:27.015Z,3.90
2023-02-07T13:13:36.335Z,3.80
2023-02-07T13:18:46.120Z,3.80
2023-02-07T13:23:50.797Z,3.70
2023-02-07T13:28:57.453Z,3.70
2023-02-07T13:34:03.423Z,3.70
2023-02-07T13:39:20.779Z,3.70
2023-02-07T13:44:32.739Z,3.70
2023-02-07T13:49:47.744Z,3.60
2023-02-07T13:54:59.725Z,3.60
2023-02-07T14:00:16.655Z,3.60
2023-02-07T14:05:28.057Z,3.60
2023-02-07T14:10:45.840Z,3.60
2023-02-07T14:16:06.075Z,3.60
2023-02-07T14:21:38.694Z,3.50
2023-02-07T14:26:57.387Z,3.50
2023-02-07T14:32:03.366Z,3.40
2023-02-07T14:37:37.897Z,3.40
2023-02-07T14:42:42.088Z,3.40
2023-02-07T14:47:45.679Z,3.40
2023-02-07T14:52:50.673Z,3.40
2023-02-07T14:57:58.773Z,3.40
2023-02-07T15:03:06.169Z,3.30
2023-02-07T15:08:18.311Z,3.30
2023-02-07T15:13:26.745Z,3.30
2023-02-07T15:18:34.432Z,3.30
2023-02-07T15:23:39.244Z,3.30
2023-02-07T15:28:44.423Z,3.30
2023-02-07T15:33:52.176Z,3.30
2023-02-07T15:38:57.769Z,3.30
2023-02-07T15:44:03.105Z,3.30
2023-02-07T15:49:09.347Z,3.30
2023-02-07T15:54:18.358Z,3.20
2023-02-07T15:59:24.168Z,3.20
2023-02-07T16:04:30.051Z,3.10
2023-02-07T16:09:43.329Z,3.10
2023-02-07T16:14:47.174Z,3.10
2023-02-07T16:19:50.649Z,3.00
2023-02-07T16:24:55.446Z,3.00
2023-02-07T16:30:00.265Z,3.00
2023-02-07T16:35:03.714Z,2.90
2023-02-07T16:40:12.180Z,2.90
2023-02-07T16:45:21.171Z,2.90
2023-02-07T16:50:27.828Z,2.90
2023-02-07T16:55:40.612Z,3.00
2023-02-07T17:00:44.296Z,3.00
2023-02-07T17:05:48.459Z,2.90
2023-02-07T17:10:57.667Z,2.90
2023-02-07T17:16:01.103Z,2.90
2023-02-07T17:21:04.698Z,2.90
2023-02-07T17:26:19.080Z,2.90
2023-02-07T17:31:23.665Z,2.80
2023-02-07T17:36:28.871Z,2.80
2023-02-07T17:41:34.444Z,2.90
2023-02-07T17:46:38.283Z,2.80
2023-02-07T17:51:42.100Z,2.80
2023-02-07T17:56:47.069Z,2.80
2023-02-07T18:01:50.671Z,2.70
2023-02-07T18:06:54.956Z,2.80
2023-02-07T18:12:03.574Z,2.80
2023-02-07T18:17:06.991Z,2.70
2023-02-07T18:22:12.148Z,2.60
2023-02-07T18:27:18.612Z,2.60
2023-02-07T18:32:22.264Z,2.70
2023-02-07T18:37:26.390Z,2.70
2023-02-07T18:42:33.147Z,2.80
2023-02-07T18:47:37.283Z,2.80
2023-02-07T18:52:42.537Z,2.80
2023-02-07T18:57:47.674Z,2.80
2023-02-07T19:02:52.353Z,2.70
2023-02-07T19:07:56.316Z,2.70
2023-02-07T19:13:01.227Z,2.70
2023-02-07T19:18:05.762Z,2.70
2023-02-07T19:23:09.686Z,2.70
2023-02-07T19:28:15.972Z,2.70
2023-02-07T19:33:19.512Z,2.70
2023-02-07T19:38:23.764Z,2.70
2023-02-07T19:43:30.411Z,2.70
2023-02-07T19:48:34.682Z,2.70
2023-02-07T19:53:38.108Z,2.70
2023-02-07T19:58:48.937Z,2.70
2023-02-07T20:03:53.354Z,2.70
2023-02-07T20:08:57.394Z,2.70
2023-02-07T20:14:03.945Z,2.70
2023-02-07T20:19:08.536Z,2.70
2023-02-07T20:24:12.017Z,2.70
2023-02-07T20:29:18.537Z,2.70
2023-02-07T20:34:22.716Z,2.70
2023-02-07T20:39:26.789Z,2.70
2023-02-07T20:44:32.039Z,2.80
2023-02-07T20:49:36.046Z,2.70
2023-02-07T20:54:39.505Z,2.60
2023-02-07T20:59:45.957Z,2.70
2023-02-07T21:04:51.295Z,2.70
2023-02-07T21:09:56.639Z,2.60
2023-02-07T21:15:02.382Z,2.60
2023-02-07T21:20:06.636Z,2.60
2023-02-07T21:25:10.277Z,2.60
2023-02-07T21:30:15.404Z,2.60
2023-02-07T21:35:18.962Z,2.60
2023-02-07T21:40:22.405Z,2.60
2023-02-07T21:45:27.255Z,2.60
2023-02-07T21:50:33.963Z,2.60
2023-02-07T21:55:37.425Z,2.70
2023-02-07T22:00:42.393Z,2.70
2023-02-07T22:05:45.837Z,2.70
2023-02-07T22:10:49.222Z,2.70
2023-02-07T22:15:54.392Z,2.70
2023-02-07T22:21:04.499Z,2.70
2023-02-07T22:26:10.070Z,2.60
2023-02-07T22:31:19.140Z,2.60
2023-02-07T22:36:24.724Z,2.50
2023-02-07T22:41:28.531Z,2.50
2023-02-07T22:46:33.306Z,2.50
2023-02-07T22:51:39.422Z,2.50
2023-02-07T22:56:44.407Z,2.50
2023-02-07T23:01:49.783Z,2.50
2023-02-07T23:06:53.298Z,2.60
2023-02-07T23:11:56.674Z,2.60
2023-02-07T23:17:01.410Z,2.60
2023-02-07T23:22:06.663Z,2.60
2023-02-07T23:27:10.448Z,2.60
2023-02-07T23:32:16.513Z,2.60
2023-02-07T23:37:22.339Z,2.60
2023-02-07T23:42:26.127Z,2.50
2023-02-07T23:47:30.903Z,2.50
2023-02-07T23:52:35.006Z,2.50
2023-02-07T23:57:38.694Z,2.50
